sensor_id;sensor_type;location;lat;lon;timestamp;P1;durP1;ratioP1;P2;durP2;ratioP2
55575;SDS011;41437;45.478;9.116;2023-05-10T00:01:12;33.58;;;23.67;;
55575;SDS011;41437;45.478;9.116;2023-05-10T00:04:14;31.85;;;24.08;;
55575;SDS011;41437;45.478;9.116;2023-05-10T00:07:16;32.10;;;25.48;;
55575;SDS011;41437;45.478;9.116;2023-05-10T00:10:17;34.45;;;26.50;;
55575;SDS011;41437;45.478;9.116;2023-05-10T00:13:18;35.13;;;26.83;;
55575;SDS011;41437;45.478;9.116;2023-05-10T00:16:20;35.05;;;26.60;;
55575;SDS011;41437;45.478;9.116;2023-05-10T00:19:22;35.78;;;27.70;;
55575;SDS011;41437;45.478;9.116;2023-05-10T00:22:24;36.75;;;27.70;;
55575;SDS011;41437;45.478;9.116;2023-05-10T00:25:25;37.38;;;27.88;;
55575;SDS011;41437;45.478;9.116;2023-05-10T00:28:27;37.60;;;27.98;;
55575;SDS011;41437;45.478;9.116;2023-05-10T00:31:28;36.53;;;28.00;;
55575;SDS011;41437;45.478;9.116;2023-05-10T00:34:31;34.28;;;26.90;;
55575;SDS011;41437;45.478;9.116;2023-05-10T00:37:32;32.58;;;26.63;;
55575;SDS011;41437;45.478;9.116;2023-05-10T00:40:35;35.58;;;27.15;;
55575;SDS011;41437;45.478;9.116;2023-05-10T00:43:36;31.98;;;24.05;;
55575;SDS011;41437;45.478;9.116;2023-05-10T00:46:37;30.33;;;24.17;;
55575;SDS011;41437;45.478;9.116;2023-05-10T00:49:40;34.38;;;25.48;;
55575;SDS011;41437;45.478;9.116;2023-05-10T00:52:42;39.40;;;26.60;;
55575;SDS011;41437;45.478;9.116;2023-05-10T00:55:43;36.30;;;26.77;;
55575;SDS011;41437;45.478;9.116;2023-05-10T00:58:45;29.08;;;22.90;;
55575;SDS011;41437;45.478;9.116;2023-05-10T01:01:46;30.13;;;22.40;;
55575;SDS011;41437;45.478;9.116;2023-05-10T01:04:49;30.35;;;23.65;;
55575;SDS011;41437;45.478;9.116;2023-05-10T01:07:50;30.63;;;22.33;;
55575;SDS011;41437;45.478;9.116;2023-05-10T01:10:51;29.13;;;22.23;;
55575;SDS011;41437;45.478;9.116;2023-05-10T01:13:54;35.05;;;23.65;;
55575;SDS011;41437;45.478;9.116;2023-05-10T01:16:56;27.35;;;21.45;;
55575;SDS011;41437;45.478;9.116;2023-05-10T01:19:59;26.55;;;20.55;;
55575;SDS011;41437;45.478;9.116;2023-05-10T01:23:11;30.25;;;22.42;;
55575;SDS011;41437;45.478;9.116;2023-05-10T01:29:23;28.70;;;22.10;;
55575;SDS011;41437;45.478;9.116;2023-05-10T01:32:29;30.75;;;22.38;;
55575;SDS011;41437;45.478;9.116;2023-05-10T01:35:33;30.38;;;22.30;;
55575;SDS011;41437;45.478;9.116;2023-05-10T01:38:38;32.90;;;22.95;;
55575;SDS011;41437;45.478;9.116;2023-05-10T01:41:45;30.70;;;22.67;;
55575;SDS011;41437;45.478;9.116;2023-05-10T01:44:49;29.70;;;21.63;;
55575;SDS011;41437;45.478;9.116;2023-05-10T01:47:56;29.20;;;22.40;;
55575;SDS011;41437;45.478;9.116;2023-05-10T01:50:59;33.95;;;23.10;;
55575;SDS011;41437;45.478;9.116;2023-05-10T01:54:01;33.05;;;23.05;;
55575;SDS011;41437;45.478;9.116;2023-05-10T01:57:03;33.90;;;23.92;;
55575;SDS011;41437;45.478;9.116;2023-05-10T02:00:06;34.88;;;23.27;;
55575;SDS011;41437;45.478;9.116;2023-05-10T02:03:10;34.40;;;24.08;;
55575;SDS011;41437;45.478;9.116;2023-05-10T02:06:12;31.13;;;22.67;;
55575;SDS011;41437;45.478;9.116;2023-05-10T02:09:15;31.45;;;22.85;;
55575;SDS011;41437;45.478;9.116;2023-05-10T02:12:17;29.50;;;21.23;;
55575;SDS011;41437;45.478;9.116;2023-05-10T02:15:19;34.55;;;22.67;;
55575;SDS011;41437;45.478;9.116;2023-05-10T02:18:23;28.17;;;21.02;;
55575;SDS011;41437;45.478;9.116;2023-05-10T02:21:24;28.92;;;20.63;;
55575;SDS011;41437;45.478;9.116;2023-05-10T02:24:26;26.77;;;19.15;;
55575;SDS011;41437;45.478;9.116;2023-05-10T02:27:28;28.33;;;19.92;;
55575;SDS011;41437;45.478;9.116;2023-05-10T02:30:30;27.90;;;19.85;;
55575;SDS011;41437;45.478;9.116;2023-05-10T02:33:33;26.98;;;18.88;;
55575;SDS011;41437;45.478;9.116;2023-05-10T02:36:35;27.52;;;18.20;;
55575;SDS011;41437;45.478;9.116;2023-05-10T02:39:38;20.27;;;15.90;;
55575;SDS011;41437;45.478;9.116;2023-05-10T02:42:43;23.48;;;15.85;;
55575;SDS011;41437;45.478;9.116;2023-05-10T02:45:46;24.90;;;16.73;;
55575;SDS011;41437;45.478;9.116;2023-05-10T02:48:52;22.38;;;16.25;;
55575;SDS011;41437;45.478;9.116;2023-05-10T02:51:56;22.13;;;15.68;;
55575;SDS011;41437;45.478;9.116;2023-05-10T02:55:01;22.42;;;14.60;;
55575;SDS011;41437;45.478;9.116;2023-05-10T02:58:03;23.58;;;15.52;;
55575;SDS011;41437;45.478;9.116;2023-05-10T03:01:05;21.88;;;15.05;;
55575;SDS011;41437;45.478;9.116;2023-05-10T03:04:08;21.80;;;15.68;;
55575;SDS011;41437;45.478;9.116;2023-05-10T03:07:10;21.48;;;15.82;;
55575;SDS011;41437;45.478;9.116;2023-05-10T03:10:11;23.35;;;15.93;;
55575;SDS011;41437;45.478;9.116;2023-05-10T03:13:16;22.98;;;15.95;;
55575;SDS011;41437;45.478;9.116;2023-05-10T03:16:21;23.65;;;16.20;;
55575;SDS011;41437;45.478;9.116;2023-05-10T03:19:26;25.60;;;17.58;;
55575;SDS011;41437;45.478;9.116;2023-05-10T03:22:30;23.98;;;16.83;;
55575;SDS011;41437;45.478;9.116;2023-05-10T03:25:32;25.55;;;17.08;;
55575;SDS011;41437;45.478;9.116;2023-05-10T03:28:33;22.33;;;16.33;;
55575;SDS011;41437;45.478;9.116;2023-05-10T03:31:35;22.17;;;16.83;;
55575;SDS011;41437;45.478;9.116;2023-05-10T03:34:42;29.00;;;17.33;;
55575;SDS011;41437;45.478;9.116;2023-05-10T03:37:43;26.30;;;17.08;;
55575;SDS011;41437;45.478;9.116;2023-05-10T03:40:45;27.15;;;18.30;;
55575;SDS011;41437;45.478;9.116;2023-05-10T03:43:46;26.85;;;16.55;;
55575;SDS011;41437;45.478;9.116;2023-05-10T03:46:47;22.38;;;16.27;;
55575;SDS011;41437;45.478;9.116;2023-05-10T03:49:50;22.00;;;15.55;;
55575;SDS011;41437;45.478;9.116;2023-05-10T03:52:51;21.90;;;15.25;;
55575;SDS011;41437;45.478;9.116;2023-05-10T03:55:52;20.83;;;14.25;;
55575;SDS011;41437;45.478;9.116;2023-05-10T03:58:54;19.73;;;14.05;;
55575;SDS011;41437;45.478;9.116;2023-05-10T04:01:55;19.85;;;14.77;;
55575;SDS011;41437;45.478;9.116;2023-05-10T04:04:58;19.55;;;14.45;;
55575;SDS011;41437;45.478;9.116;2023-05-10T04:07:59;22.50;;;14.18;;
55575;SDS011;41437;45.478;9.116;2023-05-10T04:11:04;23.95;;;14.80;;
55575;SDS011;41437;45.478;9.116;2023-05-10T04:14:06;23.20;;;14.80;;
55575;SDS011;41437;45.478;9.116;2023-05-10T04:17:07;21.25;;;13.68;;
55575;SDS011;41437;45.478;9.116;2023-05-10T04:20:10;20.13;;;14.35;;
55575;SDS011;41437;45.478;9.116;2023-05-10T04:23:12;18.15;;;13.05;;
55575;SDS011;41437;45.478;9.116;2023-05-10T04:26:15;18.23;;;13.37;;
55575;SDS011;41437;45.478;9.116;2023-05-10T04:29:16;22.20;;;13.10;;
55575;SDS011;41437;45.478;9.116;2023-05-10T04:32:17;17.67;;;12.70;;
55575;SDS011;41437;45.478;9.116;2023-05-10T04:35:21;18.63;;;12.23;;
55575;SDS011;41437;45.478;9.116;2023-05-10T04:38:22;14.95;;;10.98;;
55575;SDS011;41437;45.478;9.116;2023-05-10T04:41:24;17.80;;;11.52;;
55575;SDS011;41437;45.478;9.116;2023-05-10T04:44:25;15.00;;;12.02;;
55575;SDS011;41437;45.478;9.116;2023-05-10T04:47:27;15.77;;;11.75;;
55575;SDS011;41437;45.478;9.116;2023-05-10T04:50:29;18.63;;;11.98;;
55575;SDS011;41437;45.478;9.116;2023-05-10T04:53:31;18.17;;;11.40;;
55575;SDS011;41437;45.478;9.116;2023-05-10T04:56:32;16.02;;;11.48;;
55575;SDS011;41437;45.478;9.116;2023-05-10T04:59:35;16.77;;;11.35;;
55575;SDS011;41437;45.478;9.116;2023-05-10T05:02:36;16.05;;;12.15;;
55575;SDS011;41437;45.478;9.116;2023-05-10T05:05:39;14.40;;;11.05;;
55575;SDS011;41437;45.478;9.116;2023-05-10T05:08:40;15.30;;;11.25;;
55575;SDS011;41437;45.478;9.116;2023-05-10T05:11:41;14.82;;;10.95;;
55575;SDS011;41437;45.478;9.116;2023-05-10T05:14:43;13.48;;;10.18;;
55575;SDS011;41437;45.478;9.116;2023-05-10T05:17:44;14.90;;;10.38;;
55575;SDS011;41437;45.478;9.116;2023-05-10T05:20:49;14.18;;;11.20;;
55575;SDS011;41437;45.478;9.116;2023-05-10T05:23:50;13.60;;;10.50;;
55575;SDS011;41437;45.478;9.116;2023-05-10T05:26:51;15.40;;;10.35;;
55575;SDS011;41437;45.478;9.116;2023-05-10T05:29:53;16.42;;;11.30;;
55575;SDS011;41437;45.478;9.116;2023-05-10T05:32:54;16.50;;;11.52;;
55575;SDS011;41437;45.478;9.116;2023-05-10T05:35:59;13.63;;;10.27;;
55575;SDS011;41437;45.478;9.116;2023-05-10T05:39:01;14.38;;;10.30;;
55575;SDS011;41437;45.478;9.116;2023-05-10T05:42:02;17.02;;;10.98;;
55575;SDS011;41437;45.478;9.116;2023-05-10T05:45:05;16.05;;;11.00;;
55575;SDS011;41437;45.478;9.116;2023-05-10T05:48:06;19.13;;;11.55;;
55575;SDS011;41437;45.478;9.116;2023-05-10T05:51:09;15.98;;;11.05;;
55575;SDS011;41437;45.478;9.116;2023-05-10T05:54:10;17.48;;;11.55;;
55575;SDS011;41437;45.478;9.116;2023-05-10T05:57:12;17.33;;;11.05;;
55575;SDS011;41437;45.478;9.116;2023-05-10T06:00:13;14.95;;;11.40;;
55575;SDS011;41437;45.478;9.116;2023-05-10T06:03:15;13.52;;;10.70;;
55575;SDS011;41437;45.478;9.116;2023-05-10T06:06:20;14.00;;;11.30;;
55575;SDS011;41437;45.478;9.116;2023-05-10T06:09:23;16.88;;;11.40;;
55575;SDS011;41437;45.478;9.116;2023-05-10T06:12:24;16.50;;;11.30;;
55575;SDS011;41437;45.478;9.116;2023-05-10T06:15:27;14.30;;;10.85;;
55575;SDS011;41437;45.478;9.116;2023-05-10T06:18:28;13.93;;;10.38;;
55575;SDS011;41437;45.478;9.116;2023-05-10T06:21:33;13.07;;;9.88;;
55575;SDS011;41437;45.478;9.116;2023-05-10T06:24:34;14.55;;;10.32;;
55575;SDS011;41437;45.478;9.116;2023-05-10T06:27:36;16.45;;;10.60;;
55575;SDS011;41437;45.478;9.116;2023-05-10T06:30:37;17.20;;;10.57;;
55575;SDS011;41437;45.478;9.116;2023-05-10T06:33:38;14.55;;;10.50;;
55575;SDS011;41437;45.478;9.116;2023-05-10T06:36:41;14.23;;;11.20;;
55575;SDS011;41437;45.478;9.116;2023-05-10T06:39:42;20.75;;;11.38;;
55575;SDS011;41437;45.478;9.116;2023-05-10T06:42:44;16.20;;;10.95;;
55575;SDS011;41437;45.478;9.116;2023-05-10T06:45:45;11.98;;;9.63;;
55575;SDS011;41437;45.478;9.116;2023-05-10T06:48:47;14.73;;;10.77;;
55575;SDS011;41437;45.478;9.116;2023-05-10T06:51:50;37.53;;;11.02;;
55575;SDS011;41437;45.478;9.116;2023-05-10T06:54:51;24.87;;;11.07;;
55575;SDS011;41437;45.478;9.116;2023-05-10T06:57:53;14.57;;;9.90;;
55575;SDS011;41437;45.478;9.116;2023-05-10T07:00:54;12.07;;;9.15;;
55575;SDS011;41437;45.478;9.116;2023-05-10T07:03:55;11.13;;;8.65;;
55575;SDS011;41437;45.478;9.116;2023-05-10T07:06:58;11.43;;;8.63;;
55575;SDS011;41437;45.478;9.116;2023-05-10T07:10:00;11.15;;;8.18;;
55575;SDS011;41437;45.478;9.116;2023-05-10T07:13:01;9.25;;;7.43;;
55575;SDS011;41437;45.478;9.116;2023-05-10T07:16:02;42.65;;;10.85;;
55575;SDS011;41437;45.478;9.116;2023-05-10T07:19:06;14.30;;;8.75;;
55575;SDS011;41437;45.478;9.116;2023-05-10T07:22:08;18.58;;;8.90;;
55575;SDS011;41437;45.478;9.116;2023-05-10T07:25:10;13.20;;;7.50;;
55575;SDS011;41437;45.478;9.116;2023-05-10T07:28:11;12.27;;;6.90;;
55575;SDS011;41437;45.478;9.116;2023-05-10T07:31:13;8.82;;;6.50;;
55575;SDS011;41437;45.478;9.116;2023-05-10T07:34:14;8.52;;;6.70;;
55575;SDS011;41437;45.478;9.116;2023-05-10T07:37:17;18.00;;;8.00;;
55575;SDS011;41437;45.478;9.116;2023-05-10T07:40:18;9.90;;;7.30;;
55575;SDS011;41437;45.478;9.116;2023-05-10T07:43:20;11.00;;;6.97;;
55575;SDS011;41437;45.478;9.116;2023-05-10T07:46:21;17.02;;;7.50;;
55575;SDS011;41437;45.478;9.116;2023-05-10T07:49:22;34.15;;;8.32;;
55575;SDS011;41437;45.478;9.116;2023-05-10T07:52:26;9.60;;;6.60;;
55575;SDS011;41437;45.478;9.116;2023-05-10T07:55:28;34.83;;;7.15;;
55575;SDS011;41437;45.478;9.116;2023-05-10T07:58:29;18.50;;;6.90;;
55575;SDS011;41437;45.478;9.116;2023-05-10T08:01:31;14.95;;;7.13;;
55575;SDS011;41437;45.478;9.116;2023-05-10T08:04:33;42.65;;;8.63;;
55575;SDS011;41437;45.478;9.116;2023-05-10T08:07:36;28.05;;;7.70;;
55575;SDS011;41437;45.478;9.116;2023-05-10T08:10:37;27.10;;;6.75;;
55575;SDS011;41437;45.478;9.116;2023-05-10T08:13:38;42.65;;;9.40;;
55575;SDS011;41437;45.478;9.116;2023-05-10T08:16:39;10.00;;;6.53;;
55575;SDS011;41437;45.478;9.116;2023-05-10T08:19:41;22.48;;;6.53;;
55575;SDS011;41437;45.478;9.116;2023-05-10T08:22:44;19.88;;;6.80;;
55575;SDS011;41437;45.478;9.116;2023-05-10T08:25:45;22.87;;;6.33;;
55575;SDS011;41437;45.478;9.116;2023-05-10T08:28:47;13.27;;;6.07;;
55575;SDS011;41437;45.478;9.116;2023-05-10T08:31:48;11.05;;;6.68;;
55575;SDS011;41437;45.478;9.116;2023-05-10T08:34:49;20.92;;;7.82;;
55575;SDS011;41437;45.478;9.116;2023-05-10T08:37:52;29.60;;;6.43;;
55575;SDS011;41437;45.478;9.116;2023-05-10T08:40:54;11.03;;;6.33;;
55575;SDS011;41437;45.478;9.116;2023-05-10T08:43:58;21.10;;;6.78;;
55575;SDS011;41437;45.478;9.116;2023-05-10T08:47:02;14.43;;;6.15;;
55575;SDS011;41437;45.478;9.116;2023-05-10T08:50:05;12.43;;;5.63;;
55575;SDS011;41437;45.478;9.116;2023-05-10T08:53:10;9.93;;;5.45;;
55575;SDS011;41437;45.478;9.116;2023-05-10T08:56:12;8.82;;;6.07;;
55575;SDS011;41437;45.478;9.116;2023-05-10T08:59:15;11.50;;;5.80;;
55575;SDS011;41437;45.478;9.116;2023-05-10T09:02:17;16.27;;;5.63;;
55575;SDS011;41437;45.478;9.116;2023-05-10T09:05:19;14.50;;;5.35;;
55575;SDS011;41437;45.478;9.116;2023-05-10T09:08:22;38.30;;;7.30;;
55575;SDS011;41437;45.478;9.116;2023-05-10T09:11:25;19.27;;;5.90;;
55575;SDS011;41437;45.478;9.116;2023-05-10T09:14:29;16.92;;;5.43;;
55575;SDS011;41437;45.478;9.116;2023-05-10T09:17:30;15.82;;;5.32;;
55575;SDS011;41437;45.478;9.116;2023-05-10T09:20:31;111.97;;;10.35;;
55575;SDS011;41437;45.478;9.116;2023-05-10T09:23:34;26.00;;;5.78;;
55575;SDS011;41437;45.478;9.116;2023-05-10T09:26:35;26.75;;;6.28;;
55575;SDS011;41437;45.478;9.116;2023-05-10T09:29:46;12.93;;;6.03;;
55575;SDS011;41437;45.478;9.116;2023-05-10T09:32:47;8.18;;;4.68;;
55575;SDS011;41437;45.478;9.116;2023-05-10T09:35:50;7.20;;;4.75;;
55575;SDS011;41437;45.478;9.116;2023-05-10T09:38:53;6.60;;;4.70;;
55575;SDS011;41437;45.478;9.116;2023-05-10T09:41:55;6.75;;;4.47;;
55575;SDS011;41437;45.478;9.116;2023-05-10T09:44:59;9.40;;;4.80;;
55575;SDS011;41437;45.478;9.116;2023-05-10T09:48:01;8.65;;;4.82;;
55575;SDS011;41437;45.478;9.116;2023-05-10T09:51:03;8.95;;;4.95;;
55575;SDS011;41437;45.478;9.116;2023-05-10T09:54:12;10.88;;;4.78;;
55575;SDS011;41437;45.478;9.116;2023-05-10T09:57:18;56.60;;;10.63;;
55575;SDS011;41437;45.478;9.116;2023-05-10T10:00:21;145.77;;;17.10;;
55575;SDS011;41437;45.478;9.116;2023-05-10T10:03:22;107.68;;;14.18;;
55575;SDS011;41437;45.478;9.116;2023-05-10T10:06:24;13.88;;;6.28;;
55575;SDS011;41437;45.478;9.116;2023-05-10T10:09:27;54.42;;;10.82;;
55575;SDS011;41437;45.478;9.116;2023-05-10T10:12:29;43.08;;;8.15;;
55575;SDS011;41437;45.478;9.116;2023-05-10T10:15:30;24.27;;;7.20;;
55575;SDS011;41437;45.478;9.116;2023-05-10T10:18:33;17.38;;;5.93;;
55575;SDS011;41437;45.478;9.116;2023-05-10T10:21:34;13.32;;;5.57;;
55575;SDS011;41437;45.478;9.116;2023-05-10T10:24:37;9.75;;;5.30;;
55575;SDS011;41437;45.478;9.116;2023-05-10T10:27:42;8.57;;;5.53;;
55575;SDS011;41437;45.478;9.116;2023-05-10T10:30:45;9.38;;;5.65;;
55575;SDS011;41437;45.478;9.116;2023-05-10T10:33:54;11.35;;;7.50;;
55575;SDS011;41437;45.478;9.116;2023-05-10T10:36:57;12.13;;;8.18;;
55575;SDS011;41437;45.478;9.116;2023-05-10T10:40:00;15.23;;;10.82;;
55575;SDS011;41437;45.478;9.116;2023-05-10T10:46:17;8.63;;;6.68;;
55575;SDS011;41437;45.478;9.116;2023-05-10T10:49:20;9.27;;;6.83;;
55575;SDS011;41437;45.478;9.116;2023-05-10T10:52:23;10.05;;;6.50;;
55575;SDS011;41437;45.478;9.116;2023-05-10T10:55:29;8.65;;;6.55;;
55575;SDS011;41437;45.478;9.116;2023-05-10T10:58:30;7.10;;;6.15;;
55575;SDS011;41437;45.478;9.116;2023-05-10T11:01:33;10.07;;;7.10;;
55575;SDS011;41437;45.478;9.116;2023-05-10T11:04:41;8.05;;;6.72;;
55575;SDS011;41437;45.478;9.116;2023-05-10T11:07:51;8.30;;;6.10;;
55575;SDS011;41437;45.478;9.116;2023-05-10T11:11:01;9.55;;;6.50;;
55575;SDS011;41437;45.478;9.116;2023-05-10T11:14:03;10.40;;;6.60;;
55575;SDS011;41437;45.478;9.116;2023-05-10T11:20:21;8.68;;;5.95;;
55575;SDS011;41437;45.478;9.116;2023-05-10T11:23:29;15.73;;;7.05;;
55575;SDS011;41437;45.478;9.116;2023-05-10T11:26:33;43.92;;;9.82;;
55575;SDS011;41437;45.478;9.116;2023-05-10T11:29:35;13.10;;;6.68;;
55575;SDS011;41437;45.478;9.116;2023-05-10T11:32:36;11.15;;;5.88;;
55575;SDS011;41437;45.478;9.116;2023-05-10T11:35:38;8.40;;;6.05;;
55575;SDS011;41437;45.478;9.116;2023-05-10T11:38:40;9.75;;;6.18;;
55575;SDS011;41437;45.478;9.116;2023-05-10T11:41:43;8.57;;;5.75;;
55575;SDS011;41437;45.478;9.116;2023-05-10T11:44:48;8.25;;;6.20;;
55575;SDS011;41437;45.478;9.116;2023-05-10T11:47:49;10.05;;;6.07;;
55575;SDS011;41437;45.478;9.116;2023-05-10T11:50:51;10.57;;;5.65;;
55575;SDS011;41437;45.478;9.116;2023-05-10T11:53:53;69.00;;;13.35;;
55575;SDS011;41437;45.478;9.116;2023-05-10T11:56:56;90.90;;;14.50;;
55575;SDS011;41437;45.478;9.116;2023-05-10T11:59:57;107.75;;;14.93;;
55575;SDS011;41437;45.478;9.116;2023-05-10T12:02:59;22.23;;;7.90;;
55575;SDS011;41437;45.478;9.116;2023-05-10T12:06:01;20.30;;;8.10;;
55575;SDS011;41437;45.478;9.116;2023-05-10T12:09:05;13.13;;;8.20;;
55575;SDS011;41437;45.478;9.116;2023-05-10T12:12:08;9.25;;;7.38;;
55575;SDS011;41437;45.478;9.116;2023-05-10T12:15:12;33.65;;;9.63;;
55575;SDS011;41437;45.478;9.116;2023-05-10T12:18:23;70.72;;;13.48;;
55575;SDS011;41437;45.478;9.116;2023-05-10T12:21:25;97.88;;;16.52;;
55575;SDS011;41437;45.478;9.116;2023-05-10T12:24:26;85.72;;;13.98;;
55575;SDS011;41437;45.478;9.116;2023-05-10T12:27:32;30.23;;;8.45;;
55575;SDS011;41437;45.478;9.116;2023-05-10T12:30:34;28.05;;;8.50;;
55575;SDS011;41437;45.478;9.116;2023-05-10T12:33:36;14.88;;;5.85;;
55575;SDS011;41437;45.478;9.116;2023-05-10T12:36:39;9.05;;;5.80;;
55575;SDS011;41437;45.478;9.116;2023-05-10T12:39:41;25.35;;;7.05;;
55575;SDS011;41437;45.478;9.116;2023-05-10T12:42:44;7.53;;;5.38;;
55575;SDS011;41437;45.478;9.116;2023-05-10T12:45:46;15.00;;;5.80;;
55575;SDS011;41437;45.478;9.116;2023-05-10T12:48:48;6.82;;;5.32;;
55575;SDS011;41437;45.478;9.116;2023-05-10T12:51:54;38.47;;;7.57;;
55575;SDS011;41437;45.478;9.116;2023-05-10T12:54:56;24.05;;;7.05;;
55575;SDS011;41437;45.478;9.116;2023-05-10T12:58:00;9.15;;;5.30;;
55575;SDS011;41437;45.478;9.116;2023-05-10T13:01:01;5.75;;;4.55;;
55575;SDS011;41437;45.478;9.116;2023-05-10T13:04:02;6.20;;;4.60;;
55575;SDS011;41437;45.478;9.116;2023-05-10T13:07:04;6.63;;;4.53;;
55575;SDS011;41437;45.478;9.116;2023-05-10T13:10:05;68.10;;;10.27;;
55575;SDS011;41437;45.478;9.116;2023-05-10T13:13:08;78.28;;;10.43;;
55575;SDS011;41437;45.478;9.116;2023-05-10T13:16:10;21.47;;;6.87;;
55575;SDS011;41437;45.478;9.116;2023-05-10T13:19:12;58.22;;;10.55;;
55575;SDS011;41437;45.478;9.116;2023-05-10T13:22:13;14.57;;;5.30;;
55575;SDS011;41437;45.478;9.116;2023-05-10T13:25:14;91.90;;;11.25;;
55575;SDS011;41437;45.478;9.116;2023-05-10T13:28:17;6.47;;;4.15;;
55575;SDS011;41437;45.478;9.116;2023-05-10T13:31:18;44.63;;;8.95;;
55575;SDS011;41437;45.478;9.116;2023-05-10T13:34:20;10.73;;;4.70;;
55575;SDS011;41437;45.478;9.116;2023-05-10T13:37:21;4.97;;;3.75;;
55575;SDS011;41437;45.478;9.116;2023-05-10T13:40:23;12.65;;;4.72;;
55575;SDS011;41437;45.478;9.116;2023-05-10T13:43:25;9.73;;;4.20;;
55575;SDS011;41437;45.478;9.116;2023-05-10T13:46:28;7.72;;;3.90;;
55575;SDS011;41437;45.478;9.116;2023-05-10T13:49:29;5.50;;;4.30;;
55575;SDS011;41437;45.478;9.116;2023-05-10T13:52:31;7.63;;;4.20;;
55575;SDS011;41437;45.478;9.116;2023-05-10T13:55:32;10.50;;;4.03;;
55575;SDS011;41437;45.478;9.116;2023-05-10T13:58:35;5.93;;;3.72;;
55575;SDS011;41437;45.478;9.116;2023-05-10T14:01:36;6.73;;;4.07;;
55575;SDS011;41437;45.478;9.116;2023-05-10T14:04:38;7.05;;;3.75;;
55575;SDS011;41437;45.478;9.116;2023-05-10T14:07:39;5.15;;;3.80;;
55575;SDS011;41437;45.478;9.116;2023-05-10T14:10:41;7.13;;;4.38;;
55575;SDS011;41437;45.478;9.116;2023-05-10T14:13:43;5.38;;;4.13;;
55575;SDS011;41437;45.478;9.116;2023-05-10T14:16:45;13.85;;;4.72;;
55575;SDS011;41437;45.478;9.116;2023-05-10T14:19:46;8.38;;;4.45;;
55575;SDS011;41437;45.478;9.116;2023-05-10T14:22:47;5.65;;;4.25;;
55575;SDS011;41437;45.478;9.116;2023-05-10T14:25:49;6.07;;;4.15;;
55575;SDS011;41437;45.478;9.116;2023-05-10T14:28:52;16.70;;;6.03;;
55575;SDS011;41437;45.478;9.116;2023-05-10T14:31:53;9.38;;;5.75;;
55575;SDS011;41437;45.478;9.116;2023-05-10T14:34:54;11.88;;;4.30;;
55575;SDS011;41437;45.478;9.116;2023-05-10T14:37:56;9.27;;;4.50;;
55575;SDS011;41437;45.478;9.116;2023-05-10T14:40:57;7.05;;;4.40;;
55575;SDS011;41437;45.478;9.116;2023-05-10T14:44:00;297.45;;;22.55;;
55575;SDS011;41437;45.478;9.116;2023-05-10T14:47:03;18.08;;;4.68;;
55575;SDS011;41437;45.478;9.116;2023-05-10T14:50:05;19.35;;;4.80;;
55575;SDS011;41437;45.478;9.116;2023-05-10T14:53:06;14.77;;;4.90;;
55575;SDS011;41437;45.478;9.116;2023-05-10T14:56:08;7.95;;;4.47;;
55575;SDS011;41437;45.478;9.116;2023-05-10T14:59:11;15.20;;;5.60;;
55575;SDS011;41437;45.478;9.116;2023-05-10T15:02:12;7.70;;;4.72;;
55575;SDS011;41437;45.478;9.116;2023-05-10T15:05:13;6.22;;;5.03;;
55575;SDS011;41437;45.478;9.116;2023-05-10T15:08:15;15.43;;;5.10;;
55575;SDS011;41437;45.478;9.116;2023-05-10T15:11:16;8.60;;;4.90;;
55575;SDS011;41437;45.478;9.116;2023-05-10T15:14:19;6.97;;;4.70;;
55575;SDS011;41437;45.478;9.116;2023-05-10T15:17:20;7.05;;;4.78;;
55575;SDS011;41437;45.478;9.116;2023-05-10T15:20:21;7.20;;;4.65;;
55575;SDS011;41437;45.478;9.116;2023-05-10T15:23:24;9.43;;;5.18;;
55575;SDS011;41437;45.478;9.116;2023-05-10T15:26:27;5.82;;;4.80;;
55575;SDS011;41437;45.478;9.116;2023-05-10T15:29:30;7.32;;;5.07;;
55575;SDS011;41437;45.478;9.116;2023-05-10T15:32:31;6.30;;;5.43;;
55575;SDS011;41437;45.478;9.116;2023-05-10T15:35:32;7.75;;;5.40;;
55575;SDS011;41437;45.478;9.116;2023-05-10T15:38:35;8.25;;;5.95;;
55575;SDS011;41437;45.478;9.116;2023-05-10T15:41:37;7.97;;;5.47;;
55575;SDS011;41437;45.478;9.116;2023-05-10T15:44:40;7.55;;;5.15;;
55575;SDS011;41437;45.478;9.116;2023-05-10T15:47:41;7.68;;;5.20;;
55575;SDS011;41437;45.478;9.116;2023-05-10T15:50:44;7.30;;;4.80;;
55575;SDS011;41437;45.478;9.116;2023-05-10T15:53:45;6.43;;;5.00;;
55575;SDS011;41437;45.478;9.116;2023-05-10T15:56:46;6.90;;;4.80;;
55575;SDS011;41437;45.478;9.116;2023-05-10T15:59:50;7.25;;;6.47;;
55575;SDS011;41437;45.478;9.116;2023-05-10T16:02:51;5.82;;;4.40;;
55575;SDS011;41437;45.478;9.116;2023-05-10T16:05:53;5.78;;;4.00;;
55575;SDS011;41437;45.478;9.116;2023-05-10T16:08:54;6.28;;;4.03;;
55575;SDS011;41437;45.478;9.116;2023-05-10T16:11:56;6.95;;;4.38;;
55575;SDS011;41437;45.478;9.116;2023-05-10T16:14:58;5.35;;;4.10;;
55575;SDS011;41437;45.478;9.116;2023-05-10T16:18:00;5.57;;;4.03;;
55575;SDS011;41437;45.478;9.116;2023-05-10T16:21:01;4.85;;;3.70;;
55575;SDS011;41437;45.478;9.116;2023-05-10T16:24:03;13.55;;;8.60;;
55575;SDS011;41437;45.478;9.116;2023-05-10T16:27:04;16.02;;;11.38;;
55575;SDS011;41437;45.478;9.116;2023-05-10T16:30:08;15.75;;;9.52;;
55575;SDS011;41437;45.478;9.116;2023-05-10T16:33:09;11.70;;;7.30;;
55575;SDS011;41437;45.478;9.116;2023-05-10T16:36:10;7.95;;;6.28;;
55575;SDS011;41437;45.478;9.116;2023-05-10T16:39:12;5.85;;;4.53;;
55575;SDS011;41437;45.478;9.116;2023-05-10T16:42:13;7.63;;;4.82;;
55575;SDS011;41437;45.478;9.116;2023-05-10T16:45:16;8.30;;;7.03;;
55575;SDS011;41437;45.478;9.116;2023-05-10T16:48:17;7.05;;;5.40;;
55575;SDS011;41437;45.478;9.116;2023-05-10T16:51:19;8.02;;;6.75;;
55575;SDS011;41437;45.478;9.116;2023-05-10T16:58:04;10.97;;;8.00;;
55575;SDS011;41437;45.478;9.116;2023-05-10T17:01:07;37.40;;;25.05;;
55575;SDS011;41437;45.478;9.116;2023-05-10T17:04:08;26.45;;;18.35;;
55575;SDS011;41437;45.478;9.116;2023-05-10T17:07:09;9.07;;;7.15;;
55575;SDS011;41437;45.478;9.116;2023-05-10T17:10:12;7.47;;;6.32;;
55575;SDS011;41437;45.478;9.116;2023-05-10T17:13:13;8.13;;;6.25;;
55575;SDS011;41437;45.478;9.116;2023-05-10T17:16:17;7.03;;;5.28;;
55575;SDS011;41437;45.478;9.116;2023-05-10T17:22:21;10.48;;;8.13;;
55575;SDS011;41437;45.478;9.116;2023-05-10T17:25:23;10.38;;;7.90;;
55575;SDS011;41437;45.478;9.116;2023-05-10T17:28:24;8.45;;;6.80;;
55575;SDS011;41437;45.478;9.116;2023-05-10T17:31:27;6.75;;;5.60;;
55575;SDS011;41437;45.478;9.116;2023-05-10T17:34:28;9.40;;;6.90;;
55575;SDS011;41437;45.478;9.116;2023-05-10T17:37:30;8.60;;;5.90;;
55575;SDS011;41437;45.478;9.116;2023-05-10T17:40:32;7.32;;;5.53;;
55575;SDS011;41437;45.478;9.116;2023-05-10T17:43:33;7.82;;;5.65;;
55575;SDS011;41437;45.478;9.116;2023-05-10T17:46:38;7.85;;;5.68;;
55575;SDS011;41437;45.478;9.116;2023-05-10T17:49:39;6.90;;;5.70;;
55575;SDS011;41437;45.478;9.116;2023-05-10T17:52:41;7.30;;;5.28;;
55575;SDS011;41437;45.478;9.116;2023-05-10T17:55:45;5.68;;;4.40;;
55575;SDS011;41437;45.478;9.116;2023-05-10T17:58:47;6.85;;;4.38;;
55575;SDS011;41437;45.478;9.116;2023-05-10T18:01:50;7.18;;;5.20;;
55575;SDS011;41437;45.478;9.116;2023-05-10T18:04:52;10.35;;;7.80;;
55575;SDS011;41437;45.478;9.116;2023-05-10T18:07:53;8.20;;;5.95;;
55575;SDS011;41437;45.478;9.116;2023-05-10T18:10:55;7.22;;;5.93;;
55575;SDS011;41437;45.478;9.116;2023-05-10T18:13:56;8.32;;;5.60;;
55575;SDS011;41437;45.478;9.116;2023-05-10T18:16:59;7.03;;;5.90;;